Hemingford, Nebraska
Current Conditions -  °F | °C
As of 12:53 AM on Thursday 18 Dec 2014 (Local Time) from KAIA Reporting Station
Moderate Fog Moderate Fog  
Wind Chill:   Ceiling: 200
Heat Index: 19°   Visibility: 0.25mi
Dew Point: 17°   Wind: 8mph
Humidity: 92%   Direction: 240°WSW
Pressure: 29.99"   Gusts: NA
Location:  42.32°N, 103.07°W
Report Text: KAIA 180753Z AUTO 24007KT 1/4SM FZFG VV002 M07/M08 A2999 RMK AO2 SLP198 T10721083
Loading
Personal Weather Stations






























Interactive Weather Map New forecast layout! Learn more

10-Day Weather Forecast

Advertisements
Track Severe Weather on mobile